createdAt,value
2019-01-14T00:01:06.639Z,4.27
2019-01-14T00:03:34.288Z,3.20
2019-01-14T00:06:10.086Z,1.70
2019-01-14T00:08:34.089Z,2.00
2019-01-14T00:11:02.433Z,3.07
2019-01-14T00:13:30.388Z,2.47
2019-01-14T00:15:59.263Z,2.00
2019-01-14T00:18:27.325Z,4.00
2019-01-14T00:20:58.358Z,4.00
2019-01-14T00:23:26.216Z,2.57
2019-01-14T00:25:54.067Z,2.63
2019-01-14T00:28:24.674Z,2.23
2019-01-14T00:30:52.363Z,1.50
2019-01-14T00:33:20.066Z,3.43
2019-01-14T00:35:48.841Z,1.50
2019-01-14T00:38:19.596Z,3.03
2019-01-14T00:40:47.250Z,1.10
2019-01-14T00:43:14.937Z,4.43
2019-01-14T00:45:42.655Z,2.70
2019-01-14T00:48:13.426Z,2.23
2019-01-14T00:50:41.207Z,2.03
2019-01-14T00:53:09.011Z,2.17
2019-01-14T00:55:37.218Z,1.73
2019-01-14T00:58:07.958Z,1.67
2019-01-14T01:00:35.854Z,2.57
2019-01-14T01:03:06.181Z,1.53
2019-01-14T01:05:35.205Z,3.20
2019-01-14T01:08:03.013Z,3.50
2019-01-14T01:10:30.934Z,1.30
2019-01-14T01:12:58.519Z,2.00
2019-01-14T01:15:26.569Z,2.60
2019-01-14T01:17:54.945Z,2.53
2019-01-14T01:20:23.094Z,2.73
2019-01-14T01:22:50.995Z,1.37
2019-01-14T01:25:20.977Z,2.27
2019-01-14T01:27:48.979Z,3.40
2019-01-14T01:30:17.980Z,0.70
2019-01-14T01:32:46.371Z,0.80
2019-01-14T01:35:14.947Z,1.37
2019-01-14T01:37:42.799Z,1.37
2019-01-14T01:40:20.773Z,0.80
2019-01-14T01:42:51.427Z,0.87
2019-01-14T01:45:22.227Z,4.93
2019-01-14T01:47:50.275Z,1.20
2019-01-14T01:50:19.156Z,0.97
2019-01-14T01:52:47.266Z,0.87
2019-01-14T01:55:15.102Z,3.33
2019-01-14T01:57:43.431Z,1.53
2019-01-14T02:00:16.472Z,2.10
2019-01-14T02:02:44.300Z,2.90
2019-01-14T02:05:12.458Z,2.70
2019-01-14T02:07:40.545Z,1.63
2019-01-14T02:10:12.374Z,3.47
2019-01-14T02:12:40.013Z,3.10
2019-01-14T02:15:09.330Z,1.13
2019-01-14T02:17:37.204Z,1.30
2019-01-14T02:20:05.778Z,3.60
2019-01-14T02:22:35.587Z,1.93
2019-01-14T02:25:03.901Z,2.40
2019-01-14T02:27:31.666Z,2.83
2019-01-14T02:29:59.661Z,2.30
2019-01-14T02:32:27.433Z,2.77
2019-01-14T02:34:55.041Z,3.00
2019-01-14T02:37:25.924Z,4.50
2019-01-14T02:39:53.538Z,2.20
2019-01-14T02:42:21.130Z,3.63
2019-01-14T02:44:49.093Z,4.07
2019-01-14T02:47:16.825Z,3.53
2019-01-14T02:49:44.990Z,3.70
2019-01-14T02:52:13.032Z,4.33
2019-01-14T02:54:40.669Z,2.67
2019-01-14T02:57:08.364Z,2.57
2019-01-14T02:59:36.251Z,4.23
2019-01-14T03:02:04.422Z,3.53
2019-01-14T03:04:32.081Z,4.93
2019-01-14T03:07:00.149Z,5.23
2019-01-14T03:09:28.120Z,2.57
2019-01-14T03:11:55.738Z,2.30
2019-01-14T03:14:26.690Z,4.63
2019-01-14T03:16:54.329Z,4.90
2019-01-14T03:19:21.903Z,4.27
2019-01-14T03:21:49.841Z,4.50
2019-01-14T03:24:18.098Z,7.30
2019-01-14T03:26:45.789Z,3.27
2019-01-14T03:29:13.702Z,4.40
2019-01-14T03:31:41.267Z,4.90
2019-01-14T03:34:09.113Z,5.50
2019-01-14T03:36:36.670Z,4.97
2019-01-14T03:39:06.469Z,4.40
2019-01-14T03:41:34.339Z,4.23
2019-01-14T03:44:02.575Z,6.60
2019-01-14T03:46:30.166Z,5.37
2019-01-14T03:48:57.934Z,4.67
2019-01-14T03:51:25.541Z,9.07
2019-01-14T03:53:53.226Z,4.80
2019-01-14T03:56:23.092Z,4.87
2019-01-14T03:58:51.578Z,9.47
2019-01-14T04:01:19.920Z,7.63
2019-01-14T04:03:49.701Z,4.40
2019-01-14T04:06:19.594Z,7.23
2019-01-14T04:08:47.396Z,8.70
2019-01-14T04:11:15.130Z,6.73
2019-01-14T04:13:42.809Z,8.13
2019-01-14T04:16:11.603Z,7.03
2019-01-14T04:18:40.044Z,7.97
2019-01-14T04:21:08.613Z,9.27
2019-01-14T04:23:36.918Z,8.37
2019-01-14T04:26:04.958Z,10.43
2019-01-14T04:28:32.957Z,9.77
2019-01-14T04:31:00.608Z,7.10
2019-01-14T04:33:28.384Z,12.93
2019-01-14T04:35:55.994Z,9.43
2019-01-14T04:38:23.938Z,4.00
2019-01-14T04:40:51.510Z,11.73
2019-01-14T04:43:19.324Z,7.63
2019-01-14T04:45:47.155Z,10.73
2019-01-14T04:48:14.773Z,8.97
2019-01-14T04:50:43.326Z,13.87
2019-01-14T04:53:11.347Z,7.23
2019-01-14T04:55:39.753Z,9.03
2019-01-14T04:58:08.101Z,6.60
2019-01-14T05:00:35.800Z,11.30
2019-01-14T05:03:03.606Z,9.60
2019-01-14T05:05:31.510Z,6.90
2019-01-14T05:07:59.107Z,13.10
2019-01-14T05:10:51.239Z,10.57
2019-01-14T05:13:20.545Z,12.30
2019-01-14T05:15:49.682Z,6.67
2019-01-14T05:18:17.713Z,12.50
2019-01-14T05:20:45.727Z,8.50
2019-01-14T05:23:13.706Z,8.33
2019-01-14T05:25:41.655Z,11.93
2019-01-14T05:28:10.631Z,8.13
2019-01-14T05:30:38.575Z,7.70
2019-01-14T05:33:06.287Z,10.90
2019-01-14T05:35:34.125Z,8.90
2019-01-14T05:38:01.761Z,8.67
2019-01-14T05:40:29.389Z,10.43
2019-01-14T05:42:57.059Z,9.70
2019-01-14T05:45:24.678Z,6.20
2019-01-14T05:47:52.998Z,7.30
2019-01-14T05:50:21.058Z,9.63
2019-01-14T05:52:49.240Z,9.33
2019-01-14T05:55:17.567Z,9.30
2019-01-14T05:57:45.123Z,7.30
2019-01-14T06:00:24.134Z,9.63
2019-01-14T06:02:52.325Z,6.90
2019-01-14T06:05:20.071Z,10.00
2019-01-14T06:07:47.925Z,10.27
2019-01-14T06:10:16.146Z,9.63
2019-01-14T06:12:43.914Z,7.60
2019-01-14T06:15:15.255Z,9.07
2019-01-14T06:17:43.512Z,7.70
2019-01-14T06:20:12.594Z,13.60
2019-01-14T06:22:40.671Z,9.07
2019-01-14T06:25:09.579Z,11.60
2019-01-14T06:27:37.702Z,7.53
2019-01-14T06:30:12.482Z,13.33
2019-01-14T06:32:40.340Z,8.63
2019-01-14T06:35:08.472Z,11.23
2019-01-14T06:37:36.435Z,8.60
2019-01-14T06:40:06.467Z,12.97
2019-01-14T06:42:34.286Z,8.20
2019-01-14T06:45:06.668Z,10.80
2019-01-14T06:47:34.767Z,9.50
2019-01-14T06:50:04.068Z,13.10
2019-01-14T06:52:32.124Z,8.70
2019-01-14T06:55:00.738Z,8.77
2019-01-14T06:57:29.363Z,12.83
2019-01-14T06:59:57.482Z,8.83
2019-01-14T07:02:25.806Z,12.23
2019-01-14T07:04:53.479Z,8.33
2019-01-14T07:07:21.172Z,7.30
2019-01-14T07:09:49.385Z,11.07
2019-01-14T07:12:17.134Z,11.83
2019-01-14T07:14:45.734Z,6.27
2019-01-14T07:17:13.692Z,6.77
2019-01-14T07:19:43.319Z,10.60
2019-01-14T07:22:12.244Z,8.87
2019-01-14T07:24:41.023Z,13.80
2019-01-14T07:27:08.793Z,6.27
2019-01-14T07:29:36.428Z,9.80
2019-01-14T07:32:04.752Z,8.10
2019-01-14T07:34:32.888Z,8.37
2019-01-14T07:37:00.609Z,8.13
2019-01-14T07:39:28.588Z,9.50
2019-01-14T07:41:56.334Z,5.77
2019-01-14T07:44:24.017Z,7.20
2019-01-14T07:46:51.666Z,8.60
2019-01-14T07:49:20.417Z,10.80
2019-01-14T07:51:49.359Z,4.67
2019-01-14T07:54:17.140Z,9.13
2019-01-14T07:56:45.001Z,7.10
2019-01-14T07:59:12.771Z,11.37
2019-01-14T08:01:40.610Z,6.80
2019-01-14T08:04:08.279Z,8.50
2019-01-14T08:06:36.310Z,11.67
2019-01-14T08:09:06.959Z,9.93
2019-01-14T08:11:34.622Z,6.80
2019-01-14T08:14:04.243Z,9.47
2019-01-14T08:16:32.074Z,8.23
2019-01-14T08:18:59.849Z,7.37
2019-01-14T08:21:27.550Z,8.33
2019-01-14T08:23:55.279Z,7.43
2019-01-14T08:26:23.045Z,9.20
2019-01-14T08:28:50.769Z,8.77
2019-01-14T08:31:18.822Z,5.03
2019-01-14T08:33:46.470Z,10.53
2019-01-14T08:36:14.608Z,7.20
2019-01-14T08:38:42.391Z,8.80
2019-01-14T08:41:12.716Z,4.93
2019-01-14T08:43:41.230Z,6.57
2019-01-14T08:46:09.839Z,9.37
2019-01-14T08:48:37.541Z,8.67
2019-01-14T08:51:06.932Z,5.67
2019-01-14T08:53:34.701Z,7.47
2019-01-14T08:56:02.768Z,6.60
2019-01-14T08:58:31.557Z,6.87
2019-01-14T09:00:59.541Z,7.33
2019-01-14T09:03:27.340Z,5.70
2019-01-14T09:05:58.007Z,7.87
2019-01-14T09:08:28.755Z,8.70
2019-01-14T09:10:55.382Z,9.23
2019-01-14T09:13:23.321Z,7.60
2019-01-14T09:15:51.469Z,8.20
2019-01-14T09:18:19.216Z,6.97
2019-01-14T09:20:46.899Z,8.03
2019-01-14T09:23:14.782Z,8.20
2019-01-14T09:25:42.511Z,5.87
2019-01-14T09:28:11.524Z,7.83
2019-01-14T09:30:39.166Z,10.30
2019-01-14T09:33:07.122Z,6.00
2019-01-14T09:35:35.347Z,5.77
2019-01-14T09:38:04.074Z,7.17
2019-01-14T09:40:31.650Z,13.80
2019-01-14T09:42:59.965Z,5.80
2019-01-14T09:45:27.900Z,5.47
2019-01-14T09:47:56.077Z,5.97
2019-01-14T09:50:24.584Z,10.83
2019-01-14T09:52:52.364Z,7.60
2019-01-14T09:55:20.192Z,7.03
2019-01-14T09:57:48.026Z,5.73
2019-01-14T10:00:15.907Z,9.77
2019-01-14T10:02:45.260Z,7.47
2019-01-14T10:05:14.289Z,9.40
2019-01-14T10:07:42.822Z,6.53
2019-01-14T10:10:12.631Z,5.37
2019-01-14T10:12:40.801Z,6.57
2019-01-14T10:15:11.459Z,9.90
2019-01-14T10:17:40.214Z,4.80
2019-01-14T10:20:08.972Z,7.90
2019-01-14T10:22:37.423Z,7.97
2019-01-14T10:25:05.945Z,4.77
2019-01-14T10:27:33.856Z,6.23
2019-01-14T10:30:04.943Z,3.80
2019-01-14T10:32:32.741Z,1.37
2019-01-14T10:35:00.530Z,2.87
2019-01-14T10:37:28.598Z,2.40
2019-01-14T10:39:59.315Z,3.33
2019-01-14T10:42:26.961Z,1.70
2019-01-14T10:44:54.902Z,1.87
2019-01-14T10:47:22.756Z,4.83
2019-01-14T10:49:51.492Z,2.67
2019-01-14T10:52:19.296Z,3.77
2019-01-14T10:54:46.947Z,3.30
2019-01-14T10:57:14.844Z,2.73
2019-01-14T10:59:42.543Z,4.03
2019-01-14T11:02:10.208Z,3.10
2019-01-14T11:04:38.308Z,3.10
2019-01-14T11:07:06.052Z,5.40
2019-01-14T11:09:34.181Z,2.40
2019-01-14T11:12:05.574Z,3.20
2019-01-14T11:14:34.217Z,1.60
2019-01-14T11:17:01.976Z,1.97
2019-01-14T11:19:31.310Z,4.00
2019-01-14T11:21:59.626Z,3.40
2019-01-14T11:24:50.286Z,1.93
2019-01-14T11:27:19.729Z,3.40
2019-01-14T11:29:54.403Z,2.27
2019-01-14T11:32:23.143Z,3.43
2019-01-14T11:34:51.571Z,3.87
2019-01-14T11:37:23.455Z,3.63
2019-01-14T11:39:51.595Z,3.50
2019-01-14T11:42:19.252Z,5.30
2019-01-14T11:44:47.233Z,2.60
2019-01-14T11:47:15.010Z,3.57
2019-01-14T11:49:43.266Z,2.93
2019-01-14T11:52:11.445Z,6.40
2019-01-14T11:54:39.106Z,3.03
2019-01-14T11:57:07.877Z,4.53
2019-01-14T11:59:36.186Z,3.80
2019-01-14T12:02:04.158Z,3.50
2019-01-14T12:04:31.910Z,9.63
2019-01-14T12:06:59.874Z,2.80
2019-01-14T12:09:28.696Z,4.47
2019-01-14T12:11:56.360Z,5.60
2019-01-14T12:14:24.851Z,5.33
2019-01-14T12:16:52.498Z,4.30
2019-01-14T12:19:21.413Z,5.90
2019-01-14T12:21:50.525Z,5.40
2019-01-14T12:24:18.417Z,5.20
2019-01-14T12:26:46.243Z,3.47
2019-01-14T12:29:15.456Z,3.13
2019-01-14T12:31:43.260Z,6.30
2019-01-14T12:34:10.845Z,3.00
2019-01-14T12:36:39.172Z,3.13
2019-01-14T12:39:08.651Z,2.13
2019-01-14T12:41:36.371Z,4.87
2019-01-14T12:44:05.039Z,4.00
2019-01-14T12:46:32.702Z,4.87
2019-01-14T12:49:00.644Z,4.73
2019-01-14T12:51:33.327Z,4.60
2019-01-14T12:54:05.612Z,3.47
2019-01-14T12:56:37.771Z,2.63
2019-01-14T12:59:05.887Z,3.60
2019-01-14T13:01:34.213Z,3.10
2019-01-14T13:04:04.318Z,1.90
2019-01-14T13:06:36.521Z,3.80
2019-01-14T13:09:08.713Z,1.40
2019-01-14T13:11:37.110Z,3.00
2019-01-14T13:14:05.815Z,3.40
2019-01-14T13:16:33.549Z,4.20
2019-01-14T13:19:02.225Z,4.63
2019-01-14T13:21:30.119Z,4.60
2019-01-14T13:23:58.701Z,6.07
2019-01-14T13:26:27.134Z,2.47
2019-01-14T13:28:54.925Z,1.80
2019-01-14T13:31:22.714Z,1.90
2019-01-14T13:33:50.906Z,2.10
2019-01-14T13:36:19.047Z,2.27
2019-01-14T13:38:47.241Z,2.70
2019-01-14T13:41:15.553Z,2.80
2019-01-14T13:43:44.216Z,2.73
2019-01-14T13:46:15.530Z,4.13
2019-01-14T13:48:43.324Z,2.43
2019-01-14T13:51:12.193Z,4.57
2019-01-14T13:53:40.370Z,2.73
2019-01-14T13:56:08.145Z,2.63
2019-01-14T13:58:35.913Z,4.83
2019-01-14T14:01:04.528Z,7.27
2019-01-14T14:03:32.287Z,3.03
2019-01-14T14:06:00.105Z,5.60
2019-01-14T14:08:28.313Z,2.93
2019-01-14T14:10:56.464Z,3.73
2019-01-14T14:13:24.143Z,4.63
2019-01-14T14:15:52.353Z,3.03
2019-01-14T14:18:20.234Z,3.70
2019-01-14T14:20:48.191Z,4.80
2019-01-14T14:23:16.926Z,4.60
2019-01-14T14:25:44.965Z,3.10
2019-01-14T14:28:15.771Z,3.07
2019-01-14T14:30:44.149Z,3.80
2019-01-14T14:33:14.227Z,2.77
2019-01-14T14:35:42.391Z,3.20
2019-01-14T14:38:10.942Z,3.43
2019-01-14T14:40:39.170Z,2.30
2019-01-14T14:43:11.765Z,8.00
2019-01-14T14:45:40.034Z,1.47
2019-01-14T14:48:11.634Z,4.03
2019-01-14T14:50:40.045Z,4.33
2019-01-14T14:53:08.346Z,4.47
2019-01-14T14:55:37.071Z,4.63
2019-01-14T14:58:07.381Z,2.03
2019-01-14T15:00:36.136Z,5.17
2019-01-14T15:03:05.408Z,6.20
2019-01-14T15:05:36.480Z,3.80
2019-01-14T15:08:05.389Z,6.43
2019-01-14T15:10:33.978Z,3.80
2019-01-14T15:13:05.100Z,2.13
2019-01-14T15:15:33.736Z,6.10
2019-01-14T15:18:02.886Z,4.47
2019-01-14T15:20:31.340Z,4.70
2019-01-14T15:22:59.319Z,3.03
2019-01-14T15:25:30.235Z,1.00
2019-01-14T15:27:58.613Z,1.30
2019-01-14T15:30:31.752Z,1.43
2019-01-14T15:33:00.076Z,2.40
2019-01-14T15:35:29.754Z,1.07
2019-01-14T15:37:58.211Z,5.43
2019-01-14T15:40:28.210Z,1.30
2019-01-14T15:42:56.604Z,3.05
2019-01-14T15:45:29.177Z,1.67
2019-01-14T15:47:57.527Z,2.83
2019-01-14T15:50:26.945Z,1.77
2019-01-14T15:52:56.541Z,3.60
2019-01-14T15:55:29.497Z,5.33
2019-01-14T15:57:59.458Z,1.70
2019-01-14T16:00:28.995Z,2.47
2019-01-14T16:03:01.482Z,2.10
2019-01-14T16:05:30.399Z,3.10
2019-01-14T16:08:00.238Z,1.83
2019-01-14T16:10:30.887Z,1.50
2019-01-14T16:13:00.112Z,3.10
2019-01-14T16:15:28.928Z,3.30
2019-01-14T16:18:01.852Z,3.27
2019-01-14T16:20:30.249Z,4.33
2019-01-14T16:22:59.601Z,4.10
2019-01-14T16:25:28.263Z,3.53
2019-01-14T16:28:03.283Z,1.23
2019-01-14T16:30:31.738Z,2.20
2019-01-14T16:33:00.715Z,2.93
2019-01-14T16:35:29.380Z,1.80
2019-01-14T16:37:58.234Z,3.43
2019-01-14T16:40:28.831Z,3.30
2019-01-14T16:42:57.918Z,3.77
2019-01-14T16:45:30.356Z,2.30
2019-01-14T16:47:59.059Z,1.73
2019-01-14T16:50:27.894Z,3.90
2019-01-14T16:52:58.757Z,2.70
2019-01-14T16:55:49.314Z,3.00
2019-01-14T16:58:18.116Z,1.60
2019-01-14T17:00:46.015Z,3.37
2019-01-14T17:03:19.189Z,3.33
2019-01-14T17:05:49.242Z,3.93
2019-01-14T17:08:19.795Z,2.52
2019-01-14T17:10:49.853Z,3.80
2019-01-14T17:13:19.498Z,2.25
2019-01-14T17:15:49.931Z,3.60
2019-01-14T17:18:19.164Z,1.20
2019-01-14T17:20:59.225Z,2.87
2019-01-14T17:23:33.237Z,1.30
2019-01-14T17:26:06.662Z,0.88
2019-01-14T17:28:41.532Z,2.60
2019-01-14T17:31:11.918Z,5.30
2019-01-14T17:33:45.680Z,1.17
2019-01-14T17:36:20.181Z,1.10
2019-01-14T17:38:51.289Z,1.65
2019-01-14T17:41:26.348Z,1.10
2019-01-14T17:43:58.258Z,1.67
2019-01-14T17:46:27.296Z,3.62
2019-01-14T17:48:58.564Z,2.70
2019-01-14T17:51:33.053Z,1.70
2019-01-14T17:54:01.283Z,1.70
2019-01-14T17:56:30.139Z,2.50
2019-01-14T17:59:02.932Z,2.98
2019-01-14T18:01:31.075Z,2.15
2019-01-14T18:04:02.655Z,3.90
2019-01-14T18:06:30.573Z,1.07
2019-01-14T18:08:59.323Z,6.15
2019-01-14T18:11:28.689Z,3.58
2019-01-14T18:13:58.953Z,3.15
2019-01-14T18:16:31.927Z,2.00
2019-01-14T18:19:06.316Z,2.45
2019-01-14T18:21:34.899Z,3.30
2019-01-14T18:24:03.001Z,2.60
2019-01-14T18:26:32.958Z,1.65
2019-01-14T18:29:04.645Z,2.35
2019-01-14T18:31:34.509Z,4.23
2019-01-14T18:34:05.596Z,2.90
2019-01-14T18:36:36.410Z,1.87
2019-01-14T18:39:11.459Z,2.90
2019-01-14T18:41:41.801Z,1.97
2019-01-14T18:44:14.624Z,4.77
2019-01-14T18:46:42.879Z,3.90
2019-01-14T18:49:11.553Z,3.00
2019-01-14T18:51:46.779Z,4.57
2019-01-14T18:54:16.580Z,6.33
2019-01-14T18:56:46.523Z,4.10
2019-01-14T18:59:16.485Z,2.90
2019-01-14T19:01:44.225Z,6.13
2019-01-14T19:04:12.727Z,4.50
2019-01-14T19:06:40.567Z,2.57
2019-01-14T19:09:11.163Z,6.90
2019-01-14T19:11:39.627Z,1.53
2019-01-14T19:14:07.817Z,4.07
2019-01-14T19:16:36.590Z,4.13
2019-01-14T19:19:08.223Z,5.23
2019-01-14T19:21:38.105Z,4.73
2019-01-14T19:24:07.558Z,5.73
2019-01-14T19:26:36.432Z,5.57
2019-01-14T19:29:07.375Z,3.23
2019-01-14T19:31:38.963Z,2.97
2019-01-14T19:34:14.942Z,3.40
2019-01-14T19:36:44.651Z,2.13
2019-01-14T19:39:16.661Z,2.47
2019-01-14T19:41:47.309Z,4.40
2019-01-14T19:44:15.936Z,3.30
2019-01-14T19:46:44.152Z,2.70
2019-01-14T19:49:13.967Z,2.13
2019-01-14T19:51:41.995Z,3.17
2019-01-14T19:54:16.078Z,4.00
2019-01-14T19:56:47.985Z,3.23
2019-01-14T19:59:16.589Z,1.63
2019-01-14T20:01:44.519Z,5.90
2019-01-14T20:04:15.235Z,5.70
2019-01-14T20:06:43.842Z,3.03
2019-01-14T20:09:12.194Z,3.60
2019-01-14T20:11:41.086Z,4.50
2019-01-14T20:14:09.347Z,1.93
2019-01-14T20:16:38.127Z,2.67
2019-01-14T20:19:06.532Z,2.50
2019-01-14T20:21:35.747Z,5.73
2019-01-14T20:24:08.827Z,3.83
2019-01-14T20:26:38.369Z,4.73
2019-01-14T20:29:06.375Z,3.97
2019-01-14T20:31:37.232Z,4.57
2019-01-14T20:34:05.550Z,3.33
2019-01-14T20:36:37.276Z,2.77
2019-01-14T20:39:09.086Z,4.03
2019-01-14T20:41:38.459Z,3.10
2019-01-14T20:44:06.641Z,6.30
2019-01-14T20:46:36.209Z,4.93
2019-01-14T20:49:08.529Z,5.80
2019-01-14T20:51:36.786Z,2.23
2019-01-14T20:54:06.236Z,5.40
2019-01-14T20:56:34.098Z,5.40
2019-01-14T20:59:04.356Z,6.27
2019-01-14T21:01:36.843Z,7.27
2019-01-14T21:04:11.375Z,2.27
2019-01-14T21:06:41.388Z,5.70
2019-01-14T21:09:09.385Z,3.90
2019-01-14T21:11:37.280Z,5.73
2019-01-14T21:14:05.602Z,3.90
2019-01-14T21:16:33.833Z,5.53
2019-01-14T21:19:02.860Z,3.70
2019-01-14T21:21:31.054Z,6.70
2019-01-14T21:23:59.221Z,7.80
2019-01-14T21:26:29.984Z,4.63
2019-01-14T21:29:04.710Z,12.73
2019-01-14T21:31:32.496Z,5.43
2019-01-14T21:34:01.584Z,4.60
2019-01-14T21:36:33.441Z,5.43
2019-01-14T21:39:08.856Z,4.83
2019-01-14T21:41:36.876Z,3.83
2019-01-14T21:44:04.716Z,4.10
2019-01-14T21:46:32.773Z,5.63
2019-01-14T21:49:01.487Z,4.00
2019-01-14T21:51:29.852Z,3.73
2019-01-14T21:53:57.958Z,2.73
2019-01-14T21:56:26.250Z,5.30
2019-01-14T21:58:57.588Z,4.67
2019-01-14T22:01:25.386Z,5.77
2019-01-14T22:03:53.691Z,5.37
2019-01-14T22:06:21.589Z,7.40
2019-01-14T22:08:49.866Z,5.23
2019-01-14T22:11:18.295Z,7.50
2019-01-14T22:13:45.912Z,6.23
2019-01-14T22:16:13.602Z,5.93
2019-01-14T22:18:41.337Z,4.30
2019-01-14T22:21:08.985Z,5.60
2019-01-14T22:23:38.256Z,3.47
2019-01-14T22:26:06.297Z,5.50
2019-01-14T22:28:35.335Z,6.57
2019-01-14T22:31:03.183Z,8.13
2019-01-14T22:33:31.251Z,5.70
2019-01-14T22:36:00.263Z,4.97
2019-01-14T22:38:27.991Z,5.10
2019-01-14T22:40:55.635Z,5.87
2019-01-14T22:43:23.183Z,4.87
2019-01-14T22:45:51.004Z,4.00
2019-01-14T22:48:18.859Z,6.00
2019-01-14T22:50:46.637Z,3.70
2019-01-14T22:53:14.219Z,5.13
2019-01-14T22:55:41.842Z,7.07
2019-01-14T22:58:09.498Z,9.80
2019-01-14T23:01:13.212Z,6.43
2019-01-14T23:03:42.912Z,4.33
2019-01-14T23:06:11.696Z,7.73
2019-01-14T23:08:39.517Z,5.80
2019-01-14T23:11:08.767Z,6.00
2019-01-14T23:13:36.726Z,6.20
2019-01-14T23:16:05.174Z,4.83
2019-01-14T23:18:33.235Z,6.33
2019-01-14T23:21:05.122Z,7.67
2019-01-14T23:23:33.034Z,4.80
2019-01-14T23:26:04.215Z,6.13
2019-01-14T23:28:35.065Z,7.13
2019-01-14T23:31:07.282Z,7.10
2019-01-14T23:33:34.993Z,3.07
2019-01-14T23:36:05.186Z,5.20
2019-01-14T23:38:32.936Z,8.33
2019-01-14T23:41:01.215Z,7.67
2019-01-14T23:43:31.927Z,3.13
2019-01-14T23:45:59.638Z,3.20
2019-01-14T23:48:28.925Z,3.17
2019-01-14T23:50:56.789Z,4.93
2019-01-14T23:53:24.577Z,4.93
2019-01-14T23:55:52.317Z,5.73
2019-01-14T23:58:20.067Z,7.03
